Time;durP1;ratioP1;P1;durP2;ratioP2;P2;SDS_P1;SDS_P2;PMS_P1;PMS_P2;Temp;Humidity;BMP_temperature;BMP_pressure;BME280_temperature;BME280_humidity;BME280_pressure;Samples;Min_cycle;Max_cycle;Signal;HPM_P1;HPM_P2
2022/09/03 00:00:59;;;;;;;;;;;;;;;18.33;65.65;101217.28;5110304;28;19946;-39
2022/09/03 00:03:31;;;;;;;;;;;;;;;18.30;65.62;101217.94;5111067;28;19928;-32
2022/09/03 00:06:06;;;;;;;;;;;;;;;18.25;66.17;101216.16;5115247;28;19932;-36
2022/09/03 00:08:37;;;;;;;;;;;;;;;18.20;67.27;101216.34;5110895;28;20388;-34
2022/09/03 00:11:12;;;;;;;;;;;;;;;18.15;67.42;101221.38;5115153;28;19924;-36
2022/09/03 00:13:42;;;;;;;;;;;;;;;18.10;67.77;101213.91;5114015;28;20328;-32
2022/09/03 00:16:13;;;;;;;;;;;;;;;18.05;68.34;101216.94;5115337;28;20307;-36
2022/09/03 00:18:44;;;;;;;;;;;;;;;18.02;68.03;101222.44;5114921;28;19928;-32
2022/09/03 00:21:13;;;;;;;;;;;;;;;17.97;68.59;101215.00;5114063;28;19931;-35
2022/09/03 00:23:44;;;;;;;;;;;;;;;17.95;68.83;101208.88;5114621;28;19934;-32
2022/09/03 00:26:21;;;;;;;;;;;;;;;17.93;68.86;101211.19;5115102;28;19930;-35
2022/09/03 00:28:51;;;;;;;;;;;;;;;17.94;68.91;101215.69;5112637;28;20300;-37
2022/09/03 00:31:23;;;;;;;;;;;;;;;17.93;69.38;101208.38;5114945;28;19986;-35
2022/09/03 00:33:52;;;;;;;;;;;;;;;17.93;69.54;101207.53;5114745;28;19934;-43
2022/09/03 00:36:23;;;;;;;;;;;;;;;17.91;69.90;101207.88;5113710;28;19967;-33
2022/09/03 00:38:51;;;;;;;;;;;;;;;17.90;71.20;101209.06;5114697;28;20384;-37
2022/09/03 00:41:25;;;;;;;;;;;;;;;17.90;71.06;101209.88;5114702;28;20299;-31
2022/09/03 00:44:00;;;;;;;;;;;;;;;17.89;71.18;101198.94;5113911;28;19936;-36
2022/09/03 00:46:37;;;;;;;;;;;;;;;17.86;71.45;101208.91;5114390;28;20281;-31
2022/09/03 00:49:19;;;;;;;;;;;;;;;17.84;71.46;101208.41;5113665;28;19990;-34
2022/09/03 00:51:51;;;;;;;;;;;;;;;17.81;72.25;101211.09;5107835;28;19923;-32
2022/09/03 00:54:25;;;;;;;;;;;;;;;17.77;72.55;101210.13;5114496;28;19930;-30
2022/09/03 00:56:56;;;;;;;;;;;;;;;17.74;72.39;101219.28;5113537;28;19932;-31
2022/09/03 00:59:29;;;;;;;;;;;;;;;17.70;73.25;101205.00;5114174;28;20376;-32
2022/09/03 01:02:04;;;;;;;;;;;;;;;17.66;73.29;101214.47;5114383;28;19928;-32
2022/09/03 01:04:38;;;;;;;;;;;;;;;17.62;73.66;101213.47;5113433;28;19928;-35
2022/09/03 01:07:14;;;;;;;;;;;;;;;17.58;74.65;101214.13;5114144;28;19985;-37
2022/09/03 01:09:47;;;;;;;;;;;;;;;17.55;74.47;101214.00;5108276;28;19928;-39
2022/09/03 01:12:19;;;;;;;;;;;;;;;17.52;74.48;101220.31;5114203;28;19972;-31
2022/09/03 01:14:55;;;;;;;;;;;;;;;17.49;74.55;101218.16;5114100;28;19934;-40
2022/09/03 01:17:30;;;;;;;;;;;;;;;17.46;74.35;101214.03;5113198;28;20392;-42
2022/09/03 01:20:12;;;;;;;;;;;;;;;17.42;74.87;101210.22;5113812;28;19949;-36
2022/09/03 01:22:51;;;;;;;;;;;;;;;17.40;74.88;101215.34;5112395;28;19934;-31
2022/09/03 01:25:30;;;;;;;;;;;;;;;17.38;74.57;101209.25;5112929;28;19924;-39
2022/09/03 01:28:12;;;;;;;;;;;;;;;17.36;74.13;101211.59;5106719;28;19931;-36
2022/09/03 01:30:46;;;;;;;;;;;;;;;17.34;73.84;101213.91;5113802;28;20372;-31
2022/09/03 01:33:19;;;;;;;;;;;;;;;17.33;73.43;101212.25;5106550;28;20031;-35
2022/09/03 01:35:48;;;;;;;;;;;;;;;17.30;73.32;101217.72;5113498;28;19924;-35
2022/09/03 01:38:20;;;;;;;;;;;;;;;17.27;73.22;101215.56;5112747;28;19932;-38
2022/09/03 01:40:56;;;;;;;;;;;;;;;17.23;73.62;101204.97;5113423;28;19924;-35
2022/09/03 01:43:36;;;;;;;;;;;;;;;17.22;73.16;101205.28;5113504;28;19952;-35
2022/09/03 01:46:12;;;;;;;;;;;;;;;17.21;73.49;101214.91;5112655;28;19923;-33
2022/09/03 01:48:45;;;;;;;;;;;;;;;17.18;73.13;101205.16;5106862;28;19931;-41
2022/09/03 01:51:18;;;;;;;;;;;;;;;17.16;73.22;101210.31;5113209;28;19928;-36
2022/09/03 01:53:54;;;;;;;;;;;;;;;17.12;72.96;101209.31;5112720;28;19924;-33
2022/09/03 01:56:37;;;;;;;;;;;;;;;17.10;72.90;101200.34;5113118;28;19928;-35
2022/09/03 01:59:09;;;;;;;;;;;;;;;17.09;72.74;101203.50;5106204;28;19928;-31
2022/09/03 02:01:39;;;;;;;;;;;;;;;17.11;72.25;101204.00;5112981;28;19931;-37
2022/09/03 02:04:14;;;;;;;;;;;;;;;17.11;72.12;101206.81;5112931;28;19931;-36
2022/09/03 02:06:43;;;;;;;;;;;;;;;17.12;72.20;101203.66;5112322;28;19931;-40
2022/09/03 02:09:11;;;;;;;;;;;;;;;17.11;72.34;101192.72;5112816;28;19946;-32
2022/09/03 02:11:39;;;;;;;;;;;;;;;17.08;72.92;101188.56;5112757;28;19931;-37
2022/09/03 02:14:08;;;;;;;;;;;;;;;17.08;72.56;101194.22;5111912;28;20381;-34
2022/09/03 02:16:36;;;;;;;;;;;;;;;17.07;72.33;101194.56;5112718;28;19930;-34
2022/09/03 02:19:05;;;;;;;;;;;;;;;17.04;73.29;101201.69;5112779;28;19927;-33
2022/09/03 02:21:35;;;;;;;;;;;;;;;17.04;73.07;101198.03;5112086;28;19934;-40
2022/09/03 02:24:03;;;;;;;;;;;;;;;17.03;73.04;101193.56;5112544;28;19932;-34
2022/09/03 02:26:31;;;;;;;;;;;;;;;17.02;72.66;101194.72;5111936;28;19927;-38
2022/09/03 02:28:59;;;;;;;;;;;;;;;17.02;72.61;101189.91;5111773;28;19924;-32
2022/09/03 02:31:28;;;;;;;;;;;;;;;17.00;72.61;101200.69;5112831;28;20269;-33
2022/09/03 02:33:57;;;;;;;;;;;;;;;17.00;72.52;101188.59;5112132;28;20389;-33
2022/09/03 02:36:27;;;;;;;;;;;;;;;16.98;72.42;101197.41;5111463;28;20396;-34
2022/09/03 02:38:55;;;;;;;;;;;;;;;16.97;72.28;101184.47;5112407;28;19924;-38
2022/09/03 02:41:26;;;;;;;;;;;;;;;16.96;72.59;101196.06;5111365;28;19923;-33
2022/09/03 02:43:56;;;;;;;;;;;;;;;16.96;73.04;101194.09;5112481;28;19928;-31
2022/09/03 02:46:27;;;;;;;;;;;;;;;16.97;72.58;101197.72;5112671;28;19928;-31
2022/09/03 02:48:56;;;;;;;;;;;;;;;16.94;72.68;101199.22;5108176;28;19924;-37
2022/09/03 02:51:24;;;;;;;;;;;;;;;16.93;72.50;101199.56;5112546;28;19951;-37
2022/09/03 02:53:53;;;;;;;;;;;;;;;16.90;72.88;101195.41;5112011;28;19980;-30
2022/09/03 02:56:25;;;;;;;;;;;;;;;16.87;73.06;101199.72;5111767;28;19923;-31
2022/09/03 02:58:53;;;;;;;;;;;;;;;16.84;73.05;101194.75;5112100;28;19928;-31
2022/09/03 03:01:21;;;;;;;;;;;;;;;16.80;73.33;101185.28;5112054;28;19930;-42
2022/09/03 03:03:50;;;;;;;;;;;;;;;16.77;73.74;101200.09;5111103;28;19924;-31
2022/09/03 03:06:20;;;;;;;;;;;;;;;16.74;73.99;101189.47;5111781;28;19924;-29
2022/09/03 03:08:48;;;;;;;;;;;;;;;16.72;74.37;101188.97;5111926;28;19934;-33
2022/09/03 03:11:17;;;;;;;;;;;;;;;16.69;74.78;101186.81;5111296;28;19924;-36
2022/09/03 03:13:45;;;;;;;;;;;;;;;16.67;75.01;101200.41;5111809;28;19924;-36
2022/09/03 03:16:13;;;;;;;;;;;;;;;16.65;75.04;101191.44;5111791;28;19924;-32
2022/09/03 03:18:41;;;;;;;;;;;;;;;16.65;74.87;101184.97;5111040;28;20412;-32
2022/09/03 03:21:10;;;;;;;;;;;;;;;16.63;75.43;101187.28;5111471;28;19924;-32
2022/09/03 03:23:39;;;;;;;;;;;;;;;16.62;75.26;101188.44;5110642;28;19924;-32
2022/09/03 03:26:08;;;;;;;;;;;;;;;16.61;75.35;101186.78;5110704;28;20431;-41
2022/09/03 03:28:36;;;;;;;;;;;;;;;16.61;75.16;101190.41;5110447;28;19928;-31
2022/09/03 03:31:07;;;;;;;;;;;;;;;16.60;74.67;101193.56;5110547;28;19939;-36
2022/09/03 03:33:35;;;;;;;;;;;;;;;16.58;75.00;101190.28;5111274;28;19923;-36
2022/09/03 03:36:06;;;;;;;;;;;;;;;16.57;74.76;101192.25;5111818;28;19946;-32
2022/09/03 03:38:34;;;;;;;;;;;;;;;16.56;74.74;101186.97;5113805;28;19947;-40
2022/09/03 03:41:07;;;;;;;;;;;;;;;16.53;74.90;101182.81;5116014;28;19924;-36
2022/09/03 03:43:35;;;;;;;;;;;;;;;16.51;74.73;101185.97;5112624;28;19928;-33
2022/09/03 03:46:03;;;;;;;;;;;;;;;16.48;75.01;101180.97;5114976;28;20270;-32
2022/09/03 03:48:31;;;;;;;;;;;;;;;16.45;75.65;101192.06;5115540;28;20014;-32
2022/09/03 03:51:00;;;;;;;;;;;;;;;16.42;75.91;101190.75;5116011;28;20337;-31
2022/09/03 03:53:28;;;;;;;;;;;;;;;16.42;76.02;101187.94;5114746;28;19924;-32
2022/09/03 03:55:55;;;;;;;;;;;;;;;16.42;76.02;101184.28;5115357;28;19924;-32
2022/09/03 03:58:25;;;;;;;;;;;;;;;16.41;75.83;101179.81;5115326;28;19924;-36
2022/09/03 04:00:52;;;;;;;;;;;;;;;16.39;76.25;101179.31;5113394;28;19931;-32
2022/09/03 04:03:20;;;;;;;;;;;;;;;16.39;75.60;101179.31;5115835;28;19965;-40
2022/09/03 04:05:55;;;;;;;;;;;;;;;16.38;76.19;101174.88;5114602;28;19923;-37
2022/09/03 04:08:23;;;;;;;;;;;;;;;16.36;76.24;101180.00;5108722;28;19924;-39
2022/09/03 04:10:50;;;;;;;;;;;;;;;16.33;76.72;101175.03;5115220;28;20010;-33
2022/09/03 04:13:18;;;;;;;;;;;;;;;16.32;76.74;101179.00;5114425;28;19924;-41
2022/09/03 04:15:47;;;;;;;;;;;;;;;16.29;77.00;101179.66;5115314;28;19930;-32
2022/09/03 04:18:14;;;;;;;;;;;;;;;16.26;77.66;101181.13;5115131;28;20015;-34
2022/09/03 04:20:43;;;;;;;;;;;;;;;16.25;77.50;101178.66;5114231;28;19924;-33
2022/09/03 04:23:11;;;;;;;;;;;;;;;16.22;77.85;101184.94;5096632;28;19924;-32
2022/09/03 04:25:40;;;;;;;;;;;;;;;16.19;78.13;101190.06;5114633;28;19979;-38
2022/09/03 04:28:08;;;;;;;;;;;;;;;16.17;77.93;101180.31;5114339;28;19946;-33
2022/09/03 04:30:37;;;;;;;;;;;;;;;16.14;78.30;101178.97;5114860;28;19924;-32
2022/09/03 04:33:06;;;;;;;;;;;;;;;16.13;78.07;101179.31;5114667;28;19935;-32
2022/09/03 04:35:42;;;;;;;;;;;;;;;16.10;79.18;101179.97;5102260;28;19970;-38
2022/09/03 04:38:10;;;;;;;;;;;;;;;16.07;79.43;101174.97;5113353;28;19924;-37
2022/09/03 04:40:38;;;;;;;;;;;;;;;16.03;79.45;101177.63;5113561;28;19924;-32
2022/09/03 04:43:05;;;;;;;;;;;;;;;16.01;79.95;101177.09;5112641;28;20395;-36
2022/09/03 04:45:33;;;;;;;;;;;;;;;15.98;80.10;101172.16;5112957;28;19931;-38
2022/09/03 04:48:01;;;;;;;;;;;;;;;15.95;80.70;101184.06;5111984;28;19923;-32
2022/09/03 04:50:34;;;;;;;;;;;;;;;15.93;80.63;101175.13;5112933;28;20296;-37
2022/09/03 04:53:02;;;;;;;;;;;;;;;15.89;81.01;101174.13;5109480;28;19934;-32
2022/09/03 04:55:35;;;;;;;;;;;;;;;15.87;81.46;101169.97;5112108;28;20273;-41
2022/09/03 04:58:02;;;;;;;;;;;;;;;15.83;81.65;101172.59;5113340;28;19923;-32
2022/09/03 05:00:30;;;;;;;;;;;;;;;15.81;81.87;101172.94;5113482;28;19924;-37
2022/09/03 05:03:00;;;;;;;;;;;;;;;15.80;81.84;101179.72;5112224;28;20292;-38
2022/09/03 05:05:27;;;;;;;;;;;;;;;15.79;82.10;101174.41;5112983;28;20292;-35
2022/09/03 05:08:00;;;;;;;;;;;;;;;15.79;81.88;101180.88;5112814;28;19927;-41
2022/09/03 05:10:28;;;;;;;;;;;;;;;15.78;81.88;101175.59;5112038;28;20385;-32
2022/09/03 05:12:59;;;;;;;;;;;;;;;15.76;82.14;101177.91;5112763;28;19938;-32
2022/09/03 05:15:27;;;;;;;;;;;;;;;15.75;82.25;101181.88;5112687;28;19928;-34
2022/09/03 05:17:57;;;;;;;;;;;;;;;15.74;82.36;101177.41;5112525;28;19924;-36
2022/09/03 05:20:26;;;;;;;;;;;;;;;15.73;82.66;101178.53;5112627;28;20014;-32
2022/09/03 05:22:54;;;;;;;;;;;;;;;15.73;82.68;101176.56;5112730;28;19931;-36
2022/09/03 05:25:23;;;;;;;;;;;;;;;15.72;83.40;101180.53;5112323;28;19928;-36
2022/09/03 05:27:50;;;;;;;;;;;;;;;15.73;83.92;101178.53;5112702;28;19927;-32
2022/09/03 05:30:21;;;;;;;;;;;;;;;15.75;84.00;101179.06;5111728;28;20713;-33
2022/09/03 05:32:49;;;;;;;;;;;;;;;15.75;84.58;101174.25;5112517;28;19923;-33
2022/09/03 05:35:16;;;;;;;;;;;;;;;15.76;84.50;101177.91;5050346;28;1748282;-35
2022/09/03 05:37:44;;;;;;;;;;;;;;;15.78;84.79;101176.41;5112660;28;19938;-32
2022/09/03 05:40:11;;;;;;;;;;;;;;;15.80;85.03;101176.06;5113425;28;19936;-34
2022/09/03 05:42:40;;;;;;;;;;;;;;;15.81;85.31;101172.09;5113298;28;19932;-31
2022/09/03 05:45:09;;;;;;;;;;;;;;;15.82;85.46;101177.41;5112497;28;19924;-43
2022/09/03 05:47:38;;;;;;;;;;;;;;;15.84;85.78;101179.88;5113228;28;19941;-31
2022/09/03 05:50:07;;;;;;;;;;;;;;;15.87;86.18;101181.22;5113400;28;19928;-33
2022/09/03 05:52:35;;;;;;;;;;;;;;;15.89;86.22;101178.91;5112210;28;19924;-35
2022/09/03 05:55:03;;;;;;;;;;;;;;;15.93;85.87;101186.38;5113191;28;19931;-42
2022/09/03 05:57:31;;;;;;;;;;;;;;;15.97;85.62;101181.75;5112955;28;19967;-39
2022/09/03 06:00:00;;;;;;;;;;;;;;;16.01;85.96;101176.28;5111590;28;19935;-37
2022/09/03 06:02:28;;;;;;;;;;;;;;;16.06;85.76;101188.22;5112938;28;19924;-32
2022/09/03 06:04:56;;;;;;;;;;;;;;;16.11;85.63;101182.44;5112783;28;20011;-36
2022/09/03 06:07:26;;;;;;;;;;;;;;;16.17;85.46;101186.78;5112023;28;19923;-35
2022/09/03 06:09:53;;;;;;;;;;;;;;;16.23;85.37;101186.59;5112585;28;19934;-33
2022/09/03 06:12:21;;;;;;;;;;;;;;;16.28;84.92;101181.63;5111960;28;19928;-31
2022/09/03 06:14:48;;;;;;;;;;;;;;;16.33;84.86;101175.03;5112917;28;19947;-32
2022/09/03 06:17:17;;;;;;;;;;;;;;;16.37;84.75;101178.84;5112627;28;19939;-35
2022/09/03 06:19:45;;;;;;;;;;;;;;;16.40;85.05;101176.16;5111760;28;19923;-33
2022/09/03 06:22:12;;;;;;;;;;;;;;;16.43;84.84;101181.13;5112182;28;20411;-31
2022/09/03 06:24:40;;;;;;;;;;;;;;;16.47;84.65;101176.50;5112449;28;19931;-38
2022/09/03 06:27:07;;;;;;;;;;;;;;;16.52;84.88;101181.16;5111132;28;19924;-37
2022/09/03 06:29:35;;;;;;;;;;;;;;;16.56;84.44;101182.16;5112284;28;19935;-38
2022/09/03 06:32:03;;;;;;;;;;;;;;;16.61;84.01;101184.78;5112183;28;19931;-34
2022/09/03 06:34:32;;;;;;;;;;;;;;;16.66;83.60;101179.03;5111043;28;19932;-36
2022/09/03 06:37:00;;;;;;;;;;;;;;;16.72;83.06;101179.69;5112276;28;19923;-38
2022/09/03 06:39:28;;;;;;;;;;;;;;;16.79;82.92;101180.81;5112616;28;19924;-39
2022/09/03 06:41:55;;;;;;;;;;;;;;;16.86;82.25;101194.41;5111842;28;19981;-31
2022/09/03 06:44:34;;;;;;;;;;;;;;;16.95;81.55;101183.97;5093859;28;20309;-31
2022/09/03 06:47:01;;;;;;;;;;;;;;;17.04;80.52;101181.94;5112252;28;19932;-35
2022/09/03 06:49:30;;;;;;;;;;;;;;;17.17;79.52;101180.09;5110652;28;19934;-33
2022/09/03 06:51:59;;;;;;;;;;;;;;;17.32;78.82;101182.38;5112209;28;19924;-38
2022/09/03 06:54:27;;;;;;;;;;;;;;;17.52;78.55;101184.47;5111041;28;19928;-33
2022/09/03 06:56:54;;;;;;;;;;;;;;;17.79;77.08;101179.53;5111609;28;20436;-34
2022/09/03 06:59:22;;;;;;;;;;;;;;;18.16;74.52;101189.97;5111549;28;20373;-32
2022/09/03 07:01:49;;;;;;;;;;;;;;;18.56;73.38;101184.69;5111219;28;19934;-32
2022/09/03 07:04:18;;;;;;;;;;;;;;;19.03;69.78;101187.25;5111776;28;19928;-36
2022/09/03 07:06:46;;;;;;;;;;;;;;;19.37;66.34;101190.91;5111478;28;19928;-33
2022/09/03 07:09:17;;;;;;;;;;;;;;;19.72;63.75;101188.50;5110896;28;20290;-33
2022/09/03 07:11:48;;;;;;;;;;;;;;;20.10;63.80;101183.28;5111598;28;20384;-39
2022/09/03 07:14:17;;;;;;;;;;;;;;;20.59;61.75;101186.03;5111697;28;19928;-41
2022/09/03 07:16:45;;;;;;;;;;;;;;;21.01;58.40;101188.47;5110793;28;19931;-36
2022/09/03 07:19:13;;;;;;;;;;;;;;;21.31;55.87;101198.28;5111629;28;19947;-34
2022/09/03 07:21:41;;;;;;;;;;;;;;;21.52;55.27;101181.00;5110881;28;19924;-38
2022/09/03 07:24:17;;;;;;;;;;;;;;;21.65;54.43;101191.06;5110720;28;19927;-35
2022/09/03 07:26:45;;;;;;;;;;;;;;;21.88;53.71;101191.25;5111387;28;20030;-33
2022/09/03 07:29:14;;;;;;;;;;;;;;;22.28;53.24;101185.34;5111655;28;20015;-33
2022/09/03 07:31:43;;;;;;;;;;;;;;;22.73;51.45;101192.44;5110884;28;19955;-32
2022/09/03 07:34:12;;;;;;;;;;;;;;;23.12;50.35;101194.09;5092272;28;20254;-35
2022/09/03 07:36:41;;;;;;;;;;;;;;;23.38;47.26;101198.25;5109946;28;19931;-40
2022/09/03 07:39:10;;;;;;;;;;;;;;;23.52;47.32;101198.53;5110674;28;20188;-34
2022/09/03 07:41:41;;;;;;;;;;;;;;;23.54;45.79;101193.28;5092945;28;19932;-32
2022/09/03 07:44:09;;;;;;;;;;;;;;;23.60;46.78;101191.75;5110238;28;19935;-34
2022/09/03 07:46:38;;;;;;;;;;;;;;;23.83;46.37;101186.88;5110565;28;19924;-38
2022/09/03 07:49:06;;;;;;;;;;;;;;;24.02;44.08;101191.66;5111350;28;19956;-34
2022/09/03 07:51:34;;;;;;;;;;;;;;;24.22;44.43;101192.38;5109808;28;19931;-35
2022/09/03 07:54:04;;;;;;;;;;;;;;;24.39;43.73;101191.84;5110850;28;19928;-39
2022/09/03 07:56:33;;;;;;;;;;;;;;;24.79;44.82;101188.31;5110860;28;19934;-32
2022/09/03 07:59:03;;;;;;;;;;;;;;;25.27;42.85;101191.38;5109751;28;19946;-32
2022/09/03 08:01:32;;;;;;;;;;;;;;;25.56;42.13;101184.75;5110790;28;19982;-35
2022/09/03 08:04:00;;;;;;;;;;;;;;;25.83;40.32;101182.56;5110706;28;19935;-38
2022/09/03 08:06:29;;;;;;;;;;;;;;;25.99;39.96;101180.22;5109502;28;19932;-39
2022/09/03 08:08:58;;;;;;;;;;;;;;;26.00;39.89;101187.59;5109729;28;19928;-34
2022/09/03 08:11:32;;;;;;;;;;;;;;;25.97;41.16;101190.44;5110798;28;19931;-37
2022/09/03 08:14:01;;;;;;;;;;;;;;;26.16;39.83;101186.50;5109697;28;19924;-40
2022/09/03 08:16:31;;;;;;;;;;;;;;;26.47;39.97;101191.63;5110379;28;19938;-39
2022/09/03 08:18:59;;;;;;;;;;;;;;;26.70;37.20;101194.22;5109572;28;19963;-37
2022/09/03 08:21:27;;;;;;;;;;;;;;;26.52;36.77;101196.16;5110362;28;19931;-32
2022/09/03 08:24:01;;;;;;;;;;;;;;;26.49;37.72;101205.53;5112106;28;19924;-32
2022/09/03 08:26:29;;;;;;;;;;;;;;;26.41;38.38;101196.91;5113460;28;20257;-32
2022/09/03 08:28:57;;;;;;;;;;;;;;;26.42;37.20;101201.41;5114084;28;19932;-32
2022/09/03 08:31:26;;;;;;;;;;;;;;;26.63;38.18;101206.44;5113974;28;19935;-43
2022/09/03 08:33:56;;;;;;;;;;;;;;;26.89;38.15;101210.25;5113288;28;20674;-37
2022/09/03 08:36:25;;;;;;;;;;;;;;;27.19;37.05;101207.09;5113754;28;20678;-34
2022/09/03 08:38:54;;;;;;;;;;;;;;;27.18;36.29;101214.09;5113961;28;19943;-38
2022/09/03 08:41:29;;;;;;;;;;;;;;;27.02;37.30;101212.38;5112966;28;19934;-34
2022/09/03 08:44:04;;;;;;;;;;;;;;;27.19;35.38;101209.97;5113528;28;19930;-33
2022/09/03 08:46:35;;;;;;;;;;;;;;;27.47;36.63;101207.19;5107375;28;19928;-37
2022/09/03 08:49:05;;;;;;;;;;;;;;;27.45;35.76;101209.66;5112989;28;19928;-39
2022/09/03 08:51:37;;;;;;;;;;;;;;;27.59;36.07;101214.59;5113776;28;19934;-33
2022/09/03 08:54:06;;;;;;;;;;;;;;;27.91;35.76;101214.66;5112951;28;19924;-41
2022/09/03 08:56:36;;;;;;;;;;;;;;;28.06;35.15;101214.25;5113774;28;19941;-40
2022/09/03 08:59:04;;;;;;;;;;;;;;;28.23;35.73;101212.63;5109932;28;20013;-34
2022/09/03 09:01:37;;;;;;;;;;;;;;;28.41;33.84;101221.19;5113001;28;19924;-36
2022/09/03 09:04:12;;;;;;;;;;;;;;;28.38;34.72;101213.41;5113544;28;20274;-34
2022/09/03 09:06:42;;;;;;;;;;;;;;;28.48;35.35;101212.56;5113553;28;19932;-41
2022/09/03 09:09:18;;;;;;;;;;;;;;;28.45;35.27;101214.22;5112203;28;20024;-41
2022/09/03 09:11:54;;;;;;;;;;;;;;;28.48;34.22;101211.75;5111006;28;19928;-33
2022/09/03 09:14:26;;;;;;;;;;;;;;;28.30;33.58;101223.28;5113317;28;20364;-32
2022/09/03 09:16:59;;;;;;;;;;;;;;;28.22;33.68;101222.44;5109696;28;19927;-34
2022/09/03 09:19:39;;;;;;;;;;;;;;;28.23;35.01;101220.41;5112874;28;19985;-34
2022/09/03 09:22:08;;;;;;;;;;;;;;;28.35;35.56;101217.94;5109368;28;19949;-32
2022/09/03 09:24:40;;;;;;;;;;;;;;;28.61;34.00;101221.56;5112434;28;19931;-38
2022/09/03 09:27:08;;;;;;;;;;;;;;;28.88;33.83;101214.13;5112512;28;20293;-33
2022/09/03 09:29:41;;;;;;;;;;;;;;;28.81;33.45;101208.41;5112069;28;19967;-39
2022/09/03 09:32:12;;;;;;;;;;;;;;;28.69;34.20;101212.53;5113135;28;20026;-39
2022/09/03 09:34:41;;;;;;;;;;;;;;;28.78;33.53;101209.19;5111961;28;20666;-36
2022/09/03 09:37:12;;;;;;;;;;;;;;;28.83;32.99;101211.69;5111944;28;19932;-40
2022/09/03 09:39:39;;;;;;;;;;;;;;;28.79;34.57;101210.84;5112345;28;19924;-41
2022/09/03 09:42:08;;;;;;;;;;;;;;;28.82;34.15;101201.41;5112145;28;19977;-32
2022/09/03 09:44:36;;;;;;;;;;;;;;;28.87;33.77;101203.88;5111028;28;19993;-36
2022/09/03 09:47:05;;;;;;;;;;;;;;;29.03;34.95;101204.22;4189854;27;10000117;-32
2022/09/03 09:49:34;;;;;;;;;;;;;;;29.41;33.86;101208.13;5050788;28;19928;-36
2022/09/03 09:52:04;;;;;;;;;;;;;;;29.78;33.51;101210.34;5050803;28;19936;-33
2022/09/03 09:54:32;;;;;;;;;;;;;;;29.96;33.17;101190.06;5051500;28;19932;-40
2022/09/03 09:57:02;;;;;;;;;;;;;;;30.10;32.61;101197.78;5051981;28;19985;-37
2022/09/03 09:59:30;;;;;;;;;;;;;;;30.18;31.94;101193.56;5051206;28;20301;-42
2022/09/03 10:02:08;;;;;;;;;;;;;;;30.21;30.74;101195.59;5051411;28;19932;-41
2022/09/03 10:04:36;;;;;;;;;;;;;;;30.10;31.45;101197.78;5051096;28;19925;-35
2022/09/03 10:07:23;;;;;;;;;;;;;;;30.07;31.96;101199.44;5032831;28;20457;-39
2022/09/03 10:10:01;;;;;;;;;;;;;;;30.24;31.56;101197.66;5047537;28;19932;-35
2022/09/03 10:12:33;;;;;;;;;;;;;;;30.27;31.33;101187.34;5050730;28;19935;-34
2022/09/03 10:15:06;;;;;;;;;;;;;;;30.44;32.00;101194.97;5050945;28;19929;-34
2022/09/03 10:17:40;;;;;;;;;;;;;;;30.32;30.85;101196.34;5051224;28;19936;-33
2022/09/03 10:23:09;;;;;;;;;;;;;;;30.58;32.26;101185.38;5001815;28;20378;-35
2022/09/03 10:25:40;;;;;;;;;;;;;;;30.65;30.63;101189.00;5050744;28;19924;-34
2022/09/03 10:28:09;;;;;;;;;;;;;;;30.57;30.93;101178.81;5051109;28;20409;-33
2022/09/03 10:30:48;;;;;;;;;;;;;;;30.50;30.99;101182.56;5050910;28;19935;-34
2022/09/03 10:33:19;;;;;;;;;;;;;;;30.61;31.20;101182.47;5050224;28;19936;-37
2022/09/03 10:35:51;;;;;;;;;;;;;;;30.84;30.33;101181.78;5045764;28;19925;-41
2022/09/03 10:38:27;;;;;;;;;;;;;;;30.72;30.67;101179.47;5050699;28;19964;-33
2022/09/03 10:41:01;;;;;;;;;;;;;;;30.61;30.36;101187.41;5050246;28;19925;-40
2022/09/03 10:43:40;;;;;;;;;;;;;;;30.12;30.54;101178.84;5051347;28;19933;-32
2022/09/03 10:46:10;;;;;;;;;;;;;;;29.82;31.22;101176.59;5050896;28;19967;-32
2022/09/03 10:48:41;;;;;;;;;;;;;;;29.81;32.02;101180.72;5049874;28;19929;-33
2022/09/03 10:51:14;;;;;;;;;;;;;;;29.96;31.90;101180.63;5050627;28;19932;-35
2022/09/03 10:53:53;;;;;;;;;;;;;;;30.08;30.98;101183.81;5050046;28;19924;-33
2022/09/03 10:56:24;;;;;;;;;;;;;;;30.15;30.76;101188.69;5050994;28;19932;-33
2022/09/03 10:59:02;;;;;;;;;;;;;;;30.08;31.28;101178.06;5050830;28;19933;-31
2022/09/03 11:01:34;;;;;;;;;;;;;;;30.34;32.54;101173.69;5050114;28;19928;-36
2022/09/03 11:04:14;;;;;;;;;;;;;;;30.45;31.03;101185.91;5050667;28;19928;-33
2022/09/03 11:06:47;;;;;;;;;;;;;;;30.54;31.54;101182.53;5050830;28;19952;-39
2022/09/03 11:09:18;;;;;;;;;;;;;;;30.54;31.52;101179.66;5049839;28;19925;-32
2022/09/03 11:11:49;;;;;;;;;;;;;;;30.50;30.97;101187.50;5050481;28;19928;-34
2022/09/03 11:14:24;;;;;;;;;;;;;;;30.52;30.79;101190.78;5050651;28;19932;-33
2022/09/03 11:16:55;;;;;;;;;;;;;;;30.58;30.40;101197.72;5050406;28;20016;-32
2022/09/03 11:19:27;;;;;;;;;;;;;;;30.40;30.47;101192.13;5050823;28;20289;-32
2022/09/03 11:21:54;;;;;;;;;;;;;;;30.23;29.71;101195.19;5050318;28;19928;-34
2022/09/03 11:24:26;;;;;;;;;;;;;;;30.17;30.72;101189.09;5050575;28;19929;-39
2022/09/03 11:26:57;;;;;;;;;;;;;;;30.28;30.80;101186.91;5051159;28;19928;-38
2022/09/03 11:29:31;;;;;;;;;;;;;;;30.01;29.32;101195.38;5050067;28;19928;-40
2022/09/03 11:32:01;;;;;;;;;;;;;;;30.00;31.78;101188.00;5050988;28;19943;-32
2022/09/03 11:34:30;;;;;;;;;;;;;;;30.02;29.57;101194.16;5050636;28;19978;-34
2022/09/03 11:37:17;;;;;;;;;;;;;;;29.87;29.36;101186.03;5039761;28;19976;-28
2022/09/03 11:39:53;;;;;;;;;;;;;;;30.03;30.61;101184.25;5050511;28;20357;-32
2022/09/03 11:42:34;;;;;;;;;;;;;;;30.18;30.37;101181.28;5049654;28;19929;-29
2022/09/03 11:45:14;;;;;;;;;;;;;;;30.21;29.85;101183.28;5039181;28;19940;-30
2022/09/03 11:47:42;;;;;;;;;;;;;;;30.33;29.80;101182.75;5050782;28;19924;-30
2022/09/03 11:50:19;;;;;;;;;;;;;;;30.26;29.36;101189.41;5050098;28;19933;-30
2022/09/03 11:52:47;;;;;;;;;;;;;;;30.05;29.93;101189.59;5050918;28;19925;-32
2022/09/03 11:55:31;;;;;;;;;;;;;;;30.03;30.88;101180.56;5049768;28;20357;-36
2022/09/03 11:58:12;;;;;;;;;;;;;;;30.25;30.90;101179.13;5050396;28;19929;-31
2022/09/03 12:00:43;;;;;;;;;;;;;;;30.26;30.49;101175.00;5053507;28;19935;-35
2022/09/03 12:03:14;;;;;;;;;;;;;;;30.13;29.83;101176.78;5054934;28;19933;-29
2022/09/03 12:05:47;;;;;;;;;;;;;;;29.84;29.15;101179.06;5042728;28;19975;-29
2022/09/03 12:08:42;;;;;;;;;;;;;;;29.74;29.91;101179.97;5054551;28;19928;-29
2022/09/03 12:11:20;;;;;;;;;;;;;;;29.60;30.37;101180.88;5045190;28;19928;-29
2022/09/03 12:13:51;;;;;;;;;;;;;;;29.51;30.25;101176.88;5054473;28;19925;-35
2022/09/03 12:16:25;;;;;;;;;;;;;;;29.17;30.34;101191.84;5054360;28;19928;-28
2022/09/03 12:18:54;;;;;;;;;;;;;;;29.30;30.88;101183.53;5053654;28;20405;-33
2022/09/03 12:21:21;;;;;;;;;;;;;;;29.32;30.28;101193.38;5054342;28;19948;-29
2022/09/03 12:23:51;;;;;;;;;;;;;;;29.28;30.30;101186.00;5053889;28;19983;-32
2022/09/03 12:26:26;;;;;;;;;;;;;;;29.10;29.98;101195.56;5041615;28;19952;-32
2022/09/03 12:28:56;;;;;;;;;;;;;;;29.12;30.42;101195.16;5053205;28;19925;-36
2022/09/03 12:31:26;;;;;;;;;;;;;;;29.01;29.97;101188.63;5052902;28;19928;-32
2022/09/03 12:33:57;;;;;;;;;;;;;;;29.08;31.14;101189.41;5053433;28;20382;-31
2022/09/03 12:36:25;;;;;;;;;;;;;;;29.08;30.05;101183.66;5053958;28;19929;-29
2022/09/03 12:38:53;;;;;;;;;;;;;;;29.07;31.25;101187.78;5053971;28;19931;-36
2022/09/03 12:41:53;;;;;;;;;;;;;;;28.91;30.28;101184.56;5054550;28;19929;-38
2022/09/03 12:44:25;;;;;;;;;;;;;;;28.95;30.30;101181.69;5043630;28;19933;-29
2022/09/03 12:46:59;;;;;;;;;;;;;;;29.03;30.80;101181.22;5053071;28;19925;-28
2022/09/03 12:49:48;;;;;;;;;;;;;;;28.93;30.19;101187.84;5046231;28;19928;-30
2022/09/03 12:52:18;;;;;;;;;;;;;;;28.83;30.11;101173.50;5041759;28;19929;-29
2022/09/03 12:54:49;;;;;;;;;;;;;;;28.71;30.43;101181.34;5053082;28;19925;-29
2022/09/03 12:57:20;;;;;;;;;;;;;;;28.68;30.40;101187.09;5052505;28;19929;-28